createdAt,value
2019-05-16T00:32:08.491Z,987.33
2019-05-16T00:33:08.315Z,987.37
2019-05-16T00:34:15.583Z,987.32
2019-05-16T00:36:10.771Z,987.35
2019-05-16T00:37:22.912Z,987.34
2019-05-16T00:39:15.116Z,987.35
2019-05-16T00:40:15.063Z,987.31
2019-05-16T00:42:19.975Z,987.31
2019-05-16T00:45:49.791Z,987.27
2019-05-16T00:48:22.225Z,987.24
2019-05-16T00:49:21.811Z,987.26
2019-05-16T00:50:21.724Z,987.23
2019-05-16T00:51:22.337Z,987.18
2019-05-16T00:52:21.648Z,987.17
2019-05-16T00:53:21.603Z,987.16
2019-05-16T00:54:21.566Z,987.13
2019-05-16T00:55:21.520Z,987.13
2019-05-16T00:58:28.410Z,987.08
2019-05-16T00:59:35.085Z,987.12
2019-05-16T01:01:30.276Z,987.07
2019-05-16T01:02:30.164Z,987.03
2019-05-16T01:03:30.128Z,987.04
2019-05-16T01:04:30.604Z,987.03
2019-05-16T01:05:30.529Z,987.01
2019-05-16T01:06:30.003Z,986.98
2019-05-16T01:07:29.966Z,986.96
2019-05-16T01:08:29.918Z,986.96
2019-05-16T01:09:39.058Z,986.94
2019-05-16T01:11:34.366Z,986.89
2019-05-16T01:12:34.331Z,986.88
2019-05-16T01:13:34.192Z,986.89
2019-05-16T01:14:34.634Z,986.89
2019-05-16T01:15:34.562Z,986.83
2019-05-16T01:16:34.068Z,986.87
2019-05-16T01:17:34.042Z,986.84
2019-05-16T01:18:33.985Z,986.83
2019-05-16T01:19:33.944Z,986.84
2019-05-16T01:20:33.907Z,986.85
2019-05-16T01:21:33.870Z,986.84
2019-05-16T01:22:33.829Z,986.81
2019-05-16T01:23:33.790Z,986.79
2019-05-16T01:24:33.753Z,986.78
2019-05-16T01:25:33.705Z,986.81
2019-05-16T01:26:33.666Z,986.79
2019-05-16T01:27:42.806Z,986.78
2019-05-16T01:29:38.646Z,986.77
2019-05-16T01:30:39.043Z,986.82
2019-05-16T01:31:38.084Z,986.78
2019-05-16T01:32:48.930Z,986.78
2019-05-16T01:34:42.889Z,986.75
2019-05-16T01:37:14.818Z,986.70
2019-05-16T01:38:24.477Z,986.68
2019-05-16T01:40:19.719Z,986.63
2019-05-16T01:41:28.490Z,986.66
2019-05-16T01:43:23.488Z,986.66
2019-05-16T01:44:23.009Z,986.67
2019-05-16T01:47:28.854Z,986.63
2019-05-16T01:48:29.258Z,986.65
2019-05-16T01:49:28.231Z,986.60
2019-05-16T01:50:28.358Z,986.61
2019-05-16T01:51:28.852Z,986.64
2019-05-16T01:52:28.947Z,986.62
2019-05-16T01:53:27.861Z,986.59
2019-05-16T01:54:28.437Z,986.59
2019-05-16T01:55:28.548Z,986.61
2019-05-16T01:56:28.103Z,986.59
2019-05-16T01:57:28.257Z,986.57
2019-05-16T02:00:37.267Z,986.54
2019-05-16T02:01:32.180Z,986.54
2019-05-16T02:02:40.386Z,986.53
2019-05-16T02:04:44.382Z,986.52
2019-05-16T02:05:38.552Z,986.52
2019-05-16T02:08:08.959Z,986.47
2019-05-16T02:09:08.049Z,986.54
2019-05-16T02:11:48.157Z,986.46
2019-05-16T02:12:48.813Z,986.49
2019-05-16T02:13:48.469Z,986.50
2019-05-16T02:14:48.105Z,986.45
2019-05-16T02:15:48.648Z,986.50
2019-05-16T02:16:47.726Z,986.49
2019-05-16T02:17:48.300Z,986.49
2019-05-16T02:18:48.673Z,986.50
2019-05-16T02:19:48.386Z,986.49
2019-05-16T02:20:47.963Z,986.52
2019-05-16T02:21:47.641Z,986.48
2019-05-16T02:22:55.389Z,986.52
2019-05-16T02:24:58.818Z,986.47
2019-05-16T02:25:51.613Z,986.47
2019-05-16T02:26:52.417Z,986.51
2019-05-16T02:27:50.963Z,986.47
2019-05-16T02:28:51.475Z,986.46
2019-05-16T02:29:50.926Z,986.42
2019-05-16T02:30:51.389Z,986.44
2019-05-16T02:31:51.566Z,986.41
2019-05-16T02:32:52.221Z,986.46
2019-05-16T02:33:51.081Z,986.44
2019-05-16T02:34:51.425Z,986.39
2019-05-16T02:35:54.723Z,986.39
2019-05-16T02:37:10.617Z,986.40
2019-05-16T02:37:54.761Z,986.39
2019-05-16T02:40:55.534Z,986.34
2019-05-16T02:41:54.458Z,986.37
2019-05-16T02:42:56.196Z,986.37
2019-05-16T02:43:54.374Z,986.32
2019-05-16T02:44:54.800Z,986.33
2019-05-16T02:45:55.264Z,986.34
2019-05-16T02:47:03.227Z,986.32
2019-05-16T02:49:00.837Z,986.30
2019-05-16T02:50:00.818Z,986.28
2019-05-16T02:51:01.580Z,986.28
2019-05-16T02:52:01.181Z,986.32
2019-05-16T02:53:01.369Z,986.31
2019-05-16T02:54:01.164Z,986.32
2019-05-16T02:55:00.856Z,986.32
2019-05-16T02:56:01.150Z,986.25
2019-05-16T02:57:01.179Z,986.32
2019-05-16T02:58:00.816Z,986.28
2019-05-16T02:59:01.427Z,986.32
2019-05-16T03:00:01.245Z,986.27
2019-05-16T03:01:01.441Z,986.26
2019-05-16T03:02:00.635Z,986.29
2019-05-16T03:03:00.983Z,986.25
2019-05-16T03:03:58.002Z,986.26
2019-05-16T03:05:00.648Z,986.25
2019-05-16T03:06:01.049Z,986.27
2019-05-16T03:07:00.406Z,986.26
2019-05-16T03:08:01.041Z,986.25
2019-05-16T03:08:57.795Z,986.19
2019-05-16T03:10:01.162Z,986.22
2019-05-16T03:11:00.754Z,986.21
2019-05-16T03:11:57.676Z,986.16
2019-05-16T03:13:00.577Z,986.16
2019-05-16T03:14:00.396Z,986.14
2019-05-16T03:15:10.698Z,986.14
2019-05-16T03:17:01.995Z,986.14
2019-05-16T03:18:11.497Z,986.14
2019-05-16T03:20:10.556Z,986.10
2019-05-16T03:21:16.989Z,986.07
2019-05-16T03:37:25.076Z,985.99
2019-05-16T03:38:21.497Z,986.02
2019-05-16T03:39:21.303Z,986.01
2019-05-16T03:40:21.372Z,985.98
2019-05-16T03:41:21.648Z,986.01
2019-05-16T03:42:21.406Z,985.99
2019-05-16T03:43:21.774Z,986.01
2019-05-16T03:44:21.335Z,985.97
2019-05-16T03:45:21.416Z,986.02
2019-05-16T03:46:21.798Z,986.03
2019-05-16T03:47:21.885Z,986.01
2019-05-16T03:48:21.584Z,985.98
2019-05-16T03:49:21.247Z,986.02
2019-05-16T03:50:21.748Z,986.03
2019-05-16T03:51:21.505Z,986.05
2019-05-16T03:52:20.955Z,986.02
2019-05-16T03:53:21.253Z,986.04
2019-05-16T03:54:21.468Z,985.97
2019-05-16T03:55:21.328Z,986.03
2019-05-16T03:56:21.944Z,986.04
2019-05-16T03:57:21.452Z,985.96
2019-05-16T03:58:22.500Z,986.01
2019-05-16T03:59:21.573Z,985.97
2019-05-16T04:00:31.634Z,985.95
2019-05-16T04:02:25.118Z,985.95
2019-05-16T04:03:28.140Z,985.93
2019-05-16T04:04:24.501Z,985.92
2019-05-16T04:05:24.472Z,985.94
2019-05-16T04:06:25.125Z,985.90
2019-05-16T04:07:24.849Z,985.92
2019-05-16T04:08:25.565Z,985.89
2019-05-16T04:09:25.207Z,985.89
2019-05-16T04:10:24.755Z,985.90
2019-05-16T04:11:25.160Z,985.88
2019-05-16T04:12:24.618Z,985.87
2019-05-16T04:13:24.130Z,985.86
2019-05-16T04:14:24.089Z,985.84
2019-05-16T04:15:24.053Z,985.86
2019-05-16T04:16:24.010Z,985.83
2019-05-16T04:17:23.963Z,985.82
2019-05-16T04:18:23.924Z,985.82
2019-05-16T04:19:23.884Z,985.82
2019-05-16T04:20:23.840Z,985.78
2019-05-16T04:21:23.806Z,985.80
2019-05-16T04:22:23.764Z,985.79
2019-05-16T04:23:23.734Z,985.80
2019-05-16T04:24:23.683Z,985.81
2019-05-16T04:25:23.637Z,985.82
2019-05-16T04:26:23.604Z,985.83
2019-05-16T04:27:23.564Z,985.81
2019-05-16T04:28:23.520Z,985.80
2019-05-16T04:29:23.477Z,985.82
2019-05-16T04:30:23.440Z,985.81
2019-05-16T04:31:23.397Z,985.81
2019-05-16T04:32:23.357Z,985.83
2019-05-16T04:33:23.321Z,985.81
2019-05-16T04:34:23.278Z,985.82
2019-05-16T04:35:32.859Z,985.83
2019-05-16T04:37:31.104Z,985.80
2019-05-16T04:38:41.388Z,985.79
2019-05-16T04:40:32.898Z,985.83
2019-05-16T04:41:32.361Z,985.79
2019-05-16T04:42:32.293Z,985.81
2019-05-16T04:43:32.302Z,985.79
2019-05-16T04:44:32.231Z,985.79
2019-05-16T04:45:41.381Z,985.77
2019-05-16T04:47:36.746Z,985.75
2019-05-16T04:48:36.693Z,985.73
2019-05-16T04:49:36.450Z,985.72
2019-05-16T04:50:36.039Z,985.74
2019-05-16T04:51:35.977Z,985.73
2019-05-16T04:54:41.839Z,985.76
2019-05-16T04:55:51.461Z,985.75
2019-05-16T04:57:54.772Z,985.75
2019-05-16T04:58:45.654Z,985.75
2019-05-16T04:59:44.991Z,985.72
2019-05-16T05:00:45.802Z,985.74
2019-05-16T05:01:44.947Z,985.72
2019-05-16T05:02:46.336Z,985.77
2019-05-16T05:04:00.238Z,985.75
2019-05-16T05:04:44.794Z,985.77
2019-05-16T05:05:44.828Z,985.76
2019-05-16T05:06:44.913Z,985.74
2019-05-16T05:07:44.427Z,985.77
2019-05-16T05:08:53.927Z,985.76
2019-05-16T05:09:44.198Z,985.78
2019-05-16T05:10:44.586Z,985.79
2019-05-16T05:11:44.111Z,985.78
2019-05-16T05:12:44.074Z,985.77
2019-05-16T05:13:44.036Z,985.80
2019-05-16T05:14:43.994Z,985.82
2019-05-16T05:15:43.954Z,985.82
2019-05-16T05:16:43.912Z,985.84
2019-05-16T05:17:43.871Z,985.79
2019-05-16T05:18:43.833Z,985.79
2019-05-16T05:19:43.791Z,985.78
2019-05-16T05:20:43.755Z,985.81
2019-05-16T05:21:43.720Z,985.79
2019-05-16T05:22:43.696Z,985.80
2019-05-16T05:23:43.630Z,985.78
2019-05-16T05:24:43.593Z,985.79
2019-05-16T05:25:43.582Z,985.82
2019-05-16T05:26:43.514Z,985.76
2019-05-16T05:27:43.486Z,985.76
2019-05-16T05:28:43.432Z,985.76
2019-05-16T05:29:43.390Z,985.79
2019-05-16T05:30:43.355Z,985.78
2019-05-16T05:31:45.248Z,985.77
2019-05-16T05:32:43.277Z,985.76
2019-05-16T05:33:43.239Z,985.74
2019-05-16T05:34:43.195Z,985.77
2019-05-16T05:35:43.171Z,985.73
2019-05-16T05:36:43.112Z,985.79
2019-05-16T05:37:43.077Z,985.76
2019-05-16T05:38:43.032Z,985.75
2019-05-16T05:39:43.000Z,985.79
2019-05-16T05:40:42.957Z,985.79
2019-05-16T05:41:42.913Z,985.77
2019-05-16T05:44:55.468Z,985.72
2019-05-16T05:45:47.601Z,985.75
2019-05-16T05:46:47.193Z,985.73
2019-05-16T05:47:47.637Z,985.71
2019-05-16T05:48:47.111Z,985.72
2019-05-16T05:49:47.073Z,985.73
2019-05-16T05:50:47.036Z,985.72
2019-05-16T05:51:46.999Z,985.72
2019-05-16T05:52:46.957Z,985.76
2019-05-16T05:53:46.915Z,985.75
2019-05-16T05:54:46.878Z,985.72
2019-05-16T05:55:46.834Z,985.77
2019-05-16T05:56:46.794Z,985.74
2019-05-16T05:57:46.753Z,985.77
2019-05-16T05:58:46.718Z,985.70
2019-05-16T05:59:46.675Z,985.69
2019-05-16T06:00:46.642Z,985.72
2019-05-16T06:01:46.603Z,985.72
2019-05-16T06:02:46.560Z,985.71
2019-05-16T06:03:46.522Z,985.70
2019-05-16T06:04:46.477Z,985.76
2019-05-16T06:05:46.435Z,985.76
2019-05-16T06:06:46.394Z,985.78
2019-05-16T06:07:46.360Z,985.73
2019-05-16T06:08:46.322Z,985.68
2019-05-16T06:09:53.468Z,985.72
2019-05-16T06:10:46.243Z,985.74
2019-05-16T06:11:46.202Z,985.74
2019-05-16T06:12:46.180Z,985.73
2019-05-16T06:13:46.132Z,985.70
2019-05-16T06:14:46.085Z,985.73
2019-05-16T06:15:46.146Z,985.68
2019-05-16T06:16:46.030Z,985.73
2019-05-16T06:17:45.961Z,985.74
2019-05-16T06:18:45.923Z,985.75
2019-05-16T06:19:45.886Z,985.74
2019-05-16T06:20:45.846Z,985.69
2019-05-16T06:21:45.818Z,985.67
2019-05-16T06:22:45.770Z,985.69
2019-05-16T06:23:45.728Z,985.66
2019-05-16T06:24:45.700Z,985.69
2019-05-16T06:25:45.645Z,985.63
2019-05-16T06:26:45.624Z,985.65
2019-05-16T06:27:45.594Z,985.65
2019-05-16T06:28:45.528Z,985.64
2019-05-16T06:29:45.488Z,985.63
2019-05-16T06:30:45.449Z,985.64
2019-05-16T06:33:33.439Z,985.68
2019-05-16T06:34:26.757Z,985.65
2019-05-16T06:35:25.690Z,985.60
2019-05-16T06:36:25.649Z,985.61
2019-05-16T09:50:31.664Z,984.20
2019-05-16T09:51:31.592Z,984.18
2019-05-16T09:52:31.383Z,984.18
2019-05-16T09:53:31.412Z,984.16
2019-05-16T09:54:31.291Z,984.22
2019-05-16T09:55:31.247Z,984.23
2019-05-16T09:56:31.211Z,984.16
2019-05-16T09:57:31.170Z,984.21
2019-05-16T09:58:31.135Z,984.21
2019-05-16T09:59:31.097Z,984.18
2019-05-16T10:00:31.050Z,984.20
2019-05-16T10:01:31.013Z,984.15
2019-05-16T10:02:30.980Z,984.11
2019-05-16T10:03:30.940Z,984.08
2019-05-16T10:04:30.894Z,984.11
2019-05-16T10:05:30.861Z,984.32
2019-05-16T10:06:30.821Z,984.21
2019-05-16T10:07:30.809Z,984.25
2019-05-16T10:08:30.748Z,984.19
2019-05-16T10:09:40.826Z,984.13
2019-05-16T10:10:30.672Z,984.16
2019-05-16T10:11:31.685Z,984.20
2019-05-16T10:12:30.594Z,984.21
2019-05-16T10:13:30.557Z,984.12
2019-05-16T10:14:30.520Z,984.11
2019-05-16T10:15:30.481Z,984.07
2019-05-16T10:16:30.460Z,984.08
2019-05-16T10:17:30.409Z,984.06
2019-05-16T10:18:30.369Z,984.03
2019-05-16T10:19:30.330Z,984.00
2019-05-16T10:20:30.299Z,984.03
2019-05-16T10:21:30.260Z,983.94
2019-05-16T10:22:30.223Z,983.96
2019-05-16T10:23:30.191Z,983.92
2019-05-16T10:24:30.145Z,983.96
2019-05-16T10:25:30.110Z,983.89
2019-05-16T10:26:30.075Z,983.90
2019-05-16T10:27:30.035Z,983.91
2019-05-16T10:28:30.001Z,983.87
2019-05-16T10:29:29.987Z,983.92
2019-05-16T10:30:29.927Z,983.81
2019-05-16T10:31:41.361Z,983.84
2019-05-16T10:32:29.853Z,983.83
2019-05-16T10:33:29.826Z,983.86
2019-05-16T10:34:29.784Z,983.79
2019-05-16T10:35:30.256Z,983.77
2019-05-16T10:36:29.705Z,983.75
2019-05-16T10:37:29.671Z,983.83
2019-05-16T10:38:29.633Z,983.82
2019-05-16T10:39:29.603Z,983.75
2019-05-16T10:40:29.563Z,983.74
2019-05-16T10:41:29.526Z,983.80
2019-05-16T10:42:29.489Z,983.81
2019-05-16T10:43:29.454Z,983.81
2019-05-16T10:44:29.416Z,983.78
2019-05-16T10:45:29.376Z,983.92
2019-05-16T10:46:29.340Z,983.82
2019-05-16T10:47:31.330Z,983.85
2019-05-16T10:48:29.271Z,983.87
2019-05-16T10:49:37.138Z,983.80
2019-05-16T10:50:29.231Z,983.81
2019-05-16T10:51:29.182Z,983.78
2019-05-16T10:52:29.125Z,983.70
2019-05-16T10:53:57.894Z,983.85
2019-05-16T10:54:29.121Z,983.78
2019-05-16T10:55:29.052Z,983.81
2019-05-16T10:56:28.979Z,983.70
2019-05-16T10:57:29.946Z,983.70
2019-05-16T10:58:37.203Z,983.71
2019-05-16T11:00:57.544Z,983.71
2019-05-16T11:01:31.394Z,983.72
2019-05-16T11:02:28.802Z,983.68
2019-05-16T11:03:28.747Z,983.71
2019-05-16T11:04:42.129Z,983.69
2019-05-16T11:05:36.185Z,983.65
2019-05-16T11:06:29.259Z,983.70
2019-05-16T11:07:29.815Z,983.71
2019-05-16T11:08:28.546Z,983.74
2019-05-16T11:09:28.507Z,983.72
2019-05-16T11:10:29.611Z,983.74
2019-05-16T11:11:28.433Z,983.75
2019-05-16T11:12:45.293Z,983.71
2019-05-16T11:13:28.359Z,983.73
2019-05-16T11:14:28.357Z,983.64
2019-05-16T11:15:28.292Z,983.62
2019-05-16T11:16:28.247Z,983.66
2019-05-16T11:17:28.213Z,983.58
2019-05-16T11:18:28.184Z,983.64
2019-05-16T11:19:28.323Z,983.64
2019-05-16T11:20:28.161Z,983.61
2019-05-16T11:21:28.070Z,983.61
2019-05-16T11:22:29.895Z,983.60
2019-05-16T11:23:31.276Z,983.56
2019-05-16T11:24:29.377Z,983.55
2019-05-16T11:25:31.855Z,983.58
2019-05-16T11:26:30.232Z,983.53
2019-05-16T11:27:27.856Z,983.55
2019-05-16T11:28:27.817Z,983.59
2019-05-16T11:29:27.784Z,983.56
2019-05-16T11:30:28.173Z,983.64
2019-05-16T11:31:27.707Z,983.64
2019-05-16T11:32:27.678Z,983.58
2019-05-16T11:33:28.223Z,983.56
2019-05-16T11:34:27.599Z,983.56
2019-05-16T11:35:27.566Z,983.47
2019-05-16T11:36:27.527Z,983.53
2019-05-16T11:37:27.957Z,983.57
2019-05-16T11:38:27.455Z,983.51
2019-05-16T11:39:27.441Z,983.51
2019-05-16T11:40:30.118Z,983.48
2019-05-16T11:41:27.681Z,983.45
2019-05-16T11:42:28.009Z,983.47
2019-05-16T11:43:27.880Z,983.38
2019-05-16T11:44:28.729Z,983.29
2019-05-16T11:45:27.328Z,983.36
2019-05-16T11:46:28.084Z,983.36
2019-05-16T11:47:27.274Z,983.37
2019-05-16T11:48:29.236Z,983.34
2019-05-16T11:49:27.590Z,983.28
2019-05-16T11:50:28.081Z,983.31
2019-05-16T11:51:27.370Z,983.28
2019-05-16T11:52:26.950Z,983.22
2019-05-16T11:53:28.201Z,983.28
2019-05-16T11:54:26.873Z,983.28
2019-05-16T11:55:33.390Z,983.24
2019-05-16T11:56:26.803Z,983.25
2019-05-16T11:57:26.777Z,983.29
2019-05-16T11:58:26.807Z,983.27
2019-05-16T11:59:26.694Z,983.24
2019-05-16T12:00:30.512Z,983.26
2019-05-16T12:01:27.606Z,983.18
2019-05-16T12:02:27.888Z,983.24
2019-05-16T12:03:28.198Z,983.21
2019-05-16T12:04:28.052Z,983.20
2019-05-16T12:05:26.993Z,983.17
2019-05-16T12:06:26.883Z,983.15
2019-05-16T12:07:33.938Z,983.17
2019-05-16T12:08:26.533Z,983.22
2019-05-16T12:09:33.365Z,983.13
2019-05-16T12:10:27.054Z,983.15
2019-05-16T12:11:27.410Z,983.18
2019-05-16T12:12:27.102Z,983.15
2019-05-16T12:13:31.820Z,983.10
2019-05-16T12:14:27.232Z,983.16
2019-05-16T12:15:27.390Z,983.17
2019-05-16T12:16:27.490Z,983.13
2019-05-16T12:17:28.030Z,983.14
2019-05-16T12:18:26.566Z,983.07
2019-05-16T12:19:33.352Z,983.14
2019-05-16T12:20:27.376Z,983.21
2019-05-16T12:21:27.428Z,983.23
2019-05-16T12:22:26.794Z,983.20
2019-05-16T12:23:27.550Z,983.19
2019-05-16T12:24:33.166Z,983.14
2019-05-16T12:25:27.341Z,983.13
2019-05-16T12:26:27.925Z,983.11
2019-05-16T12:27:32.336Z,983.11
2019-05-16T12:28:27.275Z,983.07
2019-05-16T12:29:27.926Z,983.08
2019-05-16T12:30:25.562Z,982.97
2019-05-16T12:31:25.531Z,982.96
2019-05-16T12:32:27.547Z,983.01
2019-05-16T12:33:27.492Z,983.04
2019-05-16T12:34:25.412Z,983.03
2019-05-16T12:35:27.536Z,983.01
2019-05-16T12:36:26.758Z,983.00
2019-05-16T12:37:27.437Z,983.04
2019-05-16T12:38:27.644Z,983.02
2019-05-16T12:39:33.878Z,983.06
2019-05-16T12:41:29.652Z,983.04
2019-05-16T12:42:29.585Z,982.98
2019-05-16T12:43:44.610Z,983.02
2019-05-16T12:44:29.511Z,982.96
2019-05-16T12:45:29.479Z,982.96
2019-05-16T12:46:29.439Z,982.88
2019-05-16T12:47:29.402Z,982.88
2019-05-16T12:48:29.373Z,982.90
2019-05-16T12:49:29.327Z,982.89
2019-05-16T12:50:29.291Z,982.85
2019-05-16T12:51:29.258Z,982.89
2019-05-16T12:52:29.217Z,982.82
2019-05-16T12:53:31.832Z,982.78
2019-05-16T12:54:29.147Z,982.75
2019-05-16T12:55:29.111Z,982.75
2019-05-16T12:56:29.076Z,982.78
2019-05-16T12:57:31.021Z,982.80
2019-05-16T12:58:38.097Z,982.78
2019-05-16T12:59:28.964Z,982.74
2019-05-16T13:00:28.931Z,982.77
2019-05-16T13:01:33.711Z,982.74
2019-05-16T13:02:28.853Z,982.75
2019-05-16T13:03:28.852Z,982.75
2019-05-16T13:04:28.778Z,982.73
2019-05-16T13:05:28.748Z,982.66
2019-05-16T13:06:28.709Z,982.62
2019-05-16T13:07:28.669Z,982.61
2019-05-16T13:08:28.639Z,982.61
2019-05-16T13:09:28.635Z,982.58
2019-05-16T13:10:28.562Z,982.54
2019-05-16T13:11:28.527Z,982.53
2019-05-16T13:12:28.491Z,982.56
2019-05-16T13:13:28.450Z,982.50
2019-05-16T13:14:28.419Z,982.44
2019-05-16T13:15:28.381Z,982.44
2019-05-16T13:16:28.347Z,982.34
2019-05-16T13:17:28.308Z,982.36
2019-05-16T13:18:28.274Z,982.32
2019-05-16T13:19:33.021Z,982.35
2019-05-16T13:20:28.195Z,982.35
2019-05-16T13:21:28.164Z,982.31
2019-05-16T13:22:28.128Z,982.25
2019-05-16T13:23:28.093Z,982.24
2019-05-16T13:24:28.161Z,982.26
2019-05-16T13:25:28.013Z,982.25
2019-05-16T13:26:27.984Z,982.21
2019-05-16T13:27:27.943Z,982.23
2019-05-16T13:28:27.903Z,982.20
2019-05-16T13:29:27.874Z,982.18
2019-05-16T13:30:27.835Z,982.17
2019-05-16T13:31:28.629Z,982.16
2019-05-16T13:32:27.758Z,982.14
2019-05-16T13:33:27.726Z,982.12
2019-05-16T13:34:28.185Z,982.16
2019-05-16T13:35:27.651Z,982.16
2019-05-16T13:36:27.619Z,982.12
2019-05-16T13:37:27.687Z,982.08
2019-05-16T13:38:28.088Z,982.07
2019-05-16T13:39:27.679Z,982.05
2019-05-16T13:40:27.702Z,982.09
2019-05-16T13:41:27.452Z,982.04
2019-05-16T13:42:27.398Z,982.07
2019-05-16T13:43:27.363Z,982.02
2019-05-16T13:44:27.607Z,982.05
2019-05-16T13:45:27.446Z,981.97
2019-05-16T13:46:27.255Z,982.01
2019-05-16T13:47:27.217Z,982.01
2019-05-16T13:48:27.183Z,981.95
2019-05-16T13:49:27.142Z,981.97
2019-05-16T13:50:27.400Z,981.96
2019-05-16T13:51:27.071Z,981.96
2019-05-16T13:52:28.225Z,981.86
2019-05-16T13:53:27.356Z,981.85
2019-05-16T13:54:27.084Z,981.82
2019-05-16T13:55:27.218Z,981.82
2019-05-16T13:56:27.361Z,981.81
2019-05-16T13:57:28.266Z,981.77
2019-05-16T13:58:28.301Z,981.72
2019-05-16T13:59:28.040Z,981.71
2019-05-16T14:00:27.930Z,981.73
2019-05-16T14:01:27.762Z,981.74
2019-05-16T14:02:26.814Z,981.63
2019-05-16T14:03:27.686Z,981.62
2019-05-16T14:04:26.612Z,981.56
2019-05-16T14:05:26.862Z,981.56
2019-05-16T14:06:26.533Z,981.61
2019-05-16T14:07:26.499Z,981.61
2019-05-16T14:08:26.822Z,981.50
2019-05-16T14:09:26.812Z,981.49
2019-05-16T14:10:29.631Z,981.65
2019-05-16T14:11:26.351Z,981.59
2019-05-16T14:12:26.778Z,981.57
2019-05-16T14:13:27.923Z,981.58
2019-05-16T14:14:37.166Z,981.56
2019-05-16T14:15:27.067Z,981.52
2019-05-16T14:16:26.955Z,981.48
2019-05-16T14:17:27.468Z,981.47
2019-05-16T14:18:27.270Z,981.43
2019-05-16T14:19:27.459Z,981.33
2019-05-16T14:20:26.031Z,981.34
2019-05-16T14:21:25.995Z,981.32
2019-05-16T14:22:27.784Z,981.28
2019-05-16T14:23:28.082Z,981.30
2019-05-16T14:24:28.156Z,981.28
2019-05-16T14:25:25.855Z,981.29
2019-05-16T14:26:25.816Z,981.18
2019-05-16T14:27:26.856Z,981.20
2019-05-16T14:28:25.749Z,981.14
2019-05-16T14:29:27.836Z,981.16
2019-05-16T14:30:28.312Z,981.17
2019-05-16T14:31:25.635Z,981.14
2019-05-16T14:32:25.601Z,981.13
2019-05-16T14:33:27.483Z,981.12
2019-05-16T14:34:27.903Z,981.18
2019-05-16T14:35:26.777Z,981.16
2019-05-16T14:36:27.770Z,981.12
2019-05-16T14:37:26.872Z,981.10
2019-05-16T14:38:26.956Z,981.05
2019-05-16T14:39:28.349Z,981.12
2019-05-16T14:40:27.701Z,981.08
2019-05-16T14:41:27.715Z,981.04
2019-05-16T14:42:27.820Z,981.04
2019-05-16T14:43:27.120Z,981.08
2019-05-16T14:44:28.379Z,981.04
2019-05-16T14:45:26.366Z,981.03
2019-05-16T14:46:27.262Z,981.04
2019-05-16T14:47:27.231Z,980.98
2019-05-16T14:48:27.570Z,981.00
2019-05-16T14:49:28.434Z,980.98
2019-05-16T14:50:27.532Z,980.95
2019-05-16T14:51:29.334Z,980.94
2019-05-16T14:52:26.974Z,980.95
2019-05-16T14:53:28.199Z,980.95
2019-05-16T14:54:26.786Z,980.90
2019-05-16T14:55:27.305Z,980.94
2019-05-16T14:56:27.334Z,980.93
2019-05-16T14:57:27.200Z,980.96
2019-05-16T14:58:30.348Z,980.95
2019-05-16T14:59:26.850Z,981.02
2019-05-16T15:00:27.402Z,981.01
2019-05-16T15:01:26.587Z,980.93
2019-05-16T15:02:27.296Z,980.91
2019-05-16T15:03:27.131Z,980.92
2019-05-16T15:04:29.813Z,980.97
2019-05-16T15:05:24.433Z,980.90
2019-05-16T15:06:24.383Z,980.89
2019-05-16T15:07:24.349Z,980.91
2019-05-16T15:08:24.313Z,980.92
2019-05-16T15:09:24.280Z,980.93
2019-05-16T15:10:24.241Z,980.89
2019-05-16T15:11:24.205Z,980.89
2019-05-16T15:12:26.644Z,980.87
2019-05-16T15:13:24.132Z,980.88
2019-05-16T15:14:24.096Z,980.83
2019-05-16T15:15:27.403Z,980.82
2019-05-16T15:16:24.025Z,980.88
2019-05-16T15:17:23.994Z,980.82
2019-05-16T15:18:23.965Z,980.86
2019-05-16T15:19:23.922Z,980.82
2019-05-16T15:20:23.886Z,980.76
2019-05-16T15:21:23.845Z,980.71
2019-05-16T15:34:47.694Z,980.59
2019-05-16T15:35:47.119Z,980.53
2019-05-16T15:36:46.653Z,980.61
2019-05-16T15:37:48.429Z,980.52
2019-05-16T15:38:47.220Z,980.54
2019-05-16T15:39:47.556Z,980.52
2019-05-16T15:40:48.035Z,980.53
2019-05-16T15:41:45.909Z,980.57
2019-05-16T15:42:45.871Z,980.53
2019-05-16T15:43:45.836Z,980.53
2019-05-16T15:44:45.797Z,980.52
2019-05-16T15:45:52.027Z,980.61
2019-05-16T15:46:47.650Z,980.56
2019-05-16T15:47:45.695Z,980.56
2019-05-16T15:48:48.570Z,980.56
2019-05-16T15:49:47.575Z,980.54
2019-05-16T15:50:45.575Z,980.51
2019-05-16T15:51:45.533Z,980.50
2019-05-16T15:52:45.498Z,980.49
2019-05-16T15:53:45.474Z,980.47
2019-05-16T15:54:45.422Z,980.50
2019-05-16T15:55:47.059Z,980.46
2019-05-16T15:56:46.702Z,980.48
2019-05-16T15:57:47.283Z,980.43
2019-05-16T15:58:46.688Z,980.42
2019-05-16T15:59:46.947Z,980.44
2019-05-16T16:00:48.111Z,980.46
2019-05-16T16:01:47.395Z,980.44
2019-05-16T16:02:45.134Z,980.45
2019-05-16T16:03:47.200Z,980.49
2019-05-16T16:04:47.579Z,980.43
2019-05-16T16:05:45.020Z,980.48
2019-05-16T16:06:47.219Z,980.52
2019-05-16T16:07:44.949Z,980.59
2019-05-16T16:08:46.956Z,980.43
2019-05-16T16:09:46.981Z,980.49
2019-05-16T16:10:47.511Z,980.50
2019-05-16T16:11:44.800Z,980.54
2019-05-16T16:12:44.765Z,980.54
2019-05-16T16:13:44.727Z,980.54
2019-05-16T16:14:46.589Z,980.47
2019-05-16T16:15:53.268Z,980.48
2019-05-16T16:16:46.354Z,980.48
2019-05-16T16:17:46.491Z,980.48
2019-05-16T16:18:46.698Z,980.46
2019-05-16T16:19:46.775Z,980.41
2019-05-16T16:20:47.572Z,980.52
2019-05-16T16:21:47.077Z,980.42
2019-05-16T16:22:46.733Z,980.44
2019-05-16T16:23:47.126Z,980.41
2019-05-16T16:24:47.528Z,980.30
2019-05-16T16:25:49.650Z,980.39
2019-05-16T16:26:44.253Z,980.34
2019-05-16T16:27:44.219Z,980.36
2019-05-16T16:28:44.178Z,980.31
2019-05-16T16:29:44.142Z,980.30
2019-05-16T16:30:44.109Z,980.33
2019-05-16T16:31:44.068Z,980.32
2019-05-16T16:32:44.032Z,980.32
2019-05-16T16:33:44.003Z,980.32
2019-05-16T16:34:43.961Z,980.32
2019-05-16T16:35:43.923Z,980.29
2019-05-16T16:36:43.882Z,980.30
2019-05-16T16:37:43.848Z,980.31
2019-05-16T16:38:43.806Z,980.32
2019-05-16T16:39:43.775Z,980.22
2019-05-16T16:40:43.738Z,980.26
2019-05-16T16:41:43.701Z,980.21
2019-05-16T16:42:43.664Z,980.18
2019-05-16T16:43:43.622Z,980.21
2019-05-16T16:44:43.590Z,980.23
2019-05-16T16:45:43.553Z,980.23
2019-05-16T16:46:43.517Z,980.17
2019-05-16T16:47:43.479Z,980.18
2019-05-16T16:48:43.441Z,980.20
2019-05-16T16:49:43.418Z,980.13
2019-05-16T16:50:43.365Z,980.16
2019-05-16T16:51:43.333Z,980.13
2019-05-16T16:52:43.293Z,980.17
2019-05-16T16:53:43.256Z,980.12
2019-05-16T16:54:43.228Z,980.10
2019-05-16T16:55:43.185Z,980.12
2019-05-16T16:56:43.150Z,980.09
2019-05-16T16:57:43.117Z,980.05
2019-05-16T16:58:43.068Z,980.09
2019-05-16T16:59:43.037Z,980.06
2019-05-16T17:00:42.998Z,980.05
2019-05-16T17:01:42.961Z,980.05
2019-05-16T17:02:58.456Z,980.02
2019-05-16T17:03:42.882Z,980.05
2019-05-16T17:04:42.854Z,980.07
2019-05-16T17:05:42.815Z,980.01
2019-05-16T17:06:42.779Z,980.09
2019-05-16T17:07:42.735Z,980.03
2019-05-16T17:08:42.700Z,979.97
2019-05-16T17:09:42.665Z,980.02
2019-05-16T17:10:42.625Z,980.03
2019-05-16T17:11:42.592Z,980.02
2019-05-16T17:12:42.725Z,979.97
2019-05-16T17:13:42.529Z,979.99
2019-05-16T17:14:42.480Z,979.98
2019-05-16T17:15:42.440Z,980.00
2019-05-16T17:16:42.403Z,979.94
2019-05-16T17:17:42.371Z,979.90
2019-05-16T17:18:42.332Z,979.95
2019-05-16T17:19:42.297Z,979.96
2019-05-16T17:20:42.259Z,979.90
2019-05-16T17:21:51.895Z,979.86
2019-05-16T17:22:42.179Z,979.90
2019-05-16T17:23:42.148Z,979.90
2019-05-16T17:24:42.108Z,979.86
2019-05-16T17:25:42.072Z,979.93